Time,TemperatureF,DewpointF,PressureIn,WindDirection,WindDirectionDegrees,WindSpeedMPH,WindSpeedGustMPH,Humidity,HourlyPrecipIn,Conditions,Clouds,dailyrainin,SolarRadiationWatts/m^2,SoftwareType,DateUTC
2013-02-02 00:05:00,44.5,41.0,30.31,South,190,0.0,0.0,88,0.00,,,0.00,0,weatherlink.com 1.10,2013-02-02 05:05:00,
2013-02-02 00:20:00,43.9,41.0,30.32,South,190,0.0,0.0,89,0.00,,,0.00,0,weatherlink.com 1.10,2013-02-02 05:20:00,
2013-02-02 00:35:00,44.0,41.0,30.32,South,190,0.0,0.0,90,0.00,,,0.00,0,weatherlink.com 1.10,2013-02-02 05:35:00,
2013-02-02 00:50:00,44.1,41.0,30.32,South,190,0.0,0.0,90,0.00,,,0.00,0,weatherlink.com 1.10,2013-02-02 05:50:00,
2013-02-02 01:05:00,44.1,42.0,30.32,South,190,1.0,1.0,91,0.00,,,0.00,0,weatherlink.com 1.10,2013-02-02 06:05:00,
2013-02-02 01:20:00,44.1,41.0,30.32,South,190,0.0,1.0,90,0.00,,,0.00,0,weatherlink.com 1.10,2013-02-02 06:20:00,
2013-02-02 01:35:00,43.2,41.0,30.32,South,190,0.0,0.0,92,0.00,,,0.00,0,weatherlink.com 1.10,2013-02-02 06:35:00,
2013-02-02 01:50:00,42.9,41.0,30.32,South,190,0.0,0.0,92,0.00,,,0.00,0,weatherlink.com 1.10,2013-02-02 06:50:00,
2013-02-02 02:05:00,42.7,41.0,30.32,South,190,0.0,0.0,92,0.00,,,0.00,0,weatherlink.com 1.10,2013-02-02 07:05:00,
2013-02-02 02:20:00,42.4,41.0,30.31,South,190,0.0,0.0,93,0.00,,,0.00,0,weatherlink.com 1.10,2013-02-02 07:20:00,
2013-02-02 02:35:00,41.9,40.0,30.31,South,190,0.0,0.0,93,0.00,,,0.00,0,weatherlink.com 1.10,2013-02-02 07:35:00,
2013-02-02 02:50:00,41.5,40.0,30.31,South,190,0.0,0.0,93,0.00,,,0.00,0,weatherlink.com 1.10,2013-02-02 07:50:00,
2013-02-02 03:20:00,41.3,40.0,30.30,South,190,0.0,0.0,94,0.00,,,0.00,0,weatherlink.com 1.10,2013-02-02 08:20:00,
2013-02-02 03:35:00,41.1,40.0,30.30,South,190,0.0,0.0,94,0.00,,,0.00,0,weatherlink.com 1.10,2013-02-02 08:35:00,
2013-02-02 03:50:00,40.8,40.0,30.30,South,190,0.0,0.0,95,0.00,,,0.00,0,weatherlink.com 1.10,2013-02-02 08:50:00,
2013-02-02 04:05:00,40.9,40.0,30.30,South,190,0.0,0.0,95,0.00,,,0.00,0,weatherlink.com 1.10,2013-02-02 09:05:00,
2013-02-02 04:20:00,41.5,40.0,30.29,South,190,0.0,0.0,95,0.00,,,0.00,0,weatherlink.com 1.10,2013-02-02 09:20:00,
2013-02-02 04:35:00,41.9,41.0,30.29,South,190,0.0,0.0,95,0.00,,,0.00,0,weatherlink.com 1.10,2013-02-02 09:35:00,
2013-02-02 04:50:00,42.6,42.0,30.29,South,190,0.0,0.0,96,0.00,,,0.00,0,weatherlink.com 1.10,2013-02-02 09:50:00,
2013-02-02 05:06:00,43.1,42.0,30.29,South,190,0.0,0.0,96,0.00,,,0.00,0,weatherlink.com 1.10,2013-02-02 10:06:00,
2013-02-02 05:20:00,43.5,43.0,30.29,South,190,0.0,0.0,96,0.00,,,0.00,0,weatherlink.com 1.10,2013-02-02 10:20:00,
2013-02-02 05:36:00,43.6,42.0,30.29,South,190,0.0,0.0,95,0.00,,,0.00,0,weatherlink.com 1.10,2013-02-02 10:36:00,
2013-02-02 05:50:00,43.4,42.0,30.29,South,190,0.0,0.0,95,0.00,,,0.00,0,weatherlink.com 1.10,2013-02-02 10:50:00,
2013-02-02 06:05:00,43.2,42.0,30.29,South,190,0.0,0.0,96,0.00,,,0.00,0,weatherlink.com 1.10,2013-02-02 11:05:00,
2013-02-02 06:20:00,43.2,42.0,30.29,South,190,0.0,0.0,96,0.00,,,0.00,0,weatherlink.com 1.10,2013-02-02 11:20:00,
2013-02-02 06:35:00,43.2,42.0,30.29,South,190,0.0,0.0,96,0.00,,,0.00,0,weatherlink.com 1.10,2013-02-02 11:35:00,
2013-02-02 06:50:00,43.6,43.0,30.29,South,190,0.0,2.0,96,0.00,,,0.00,0,weatherlink.com 1.10,2013-02-02 11:50:00,
2013-02-02 07:05:00,43.6,43.0,30.30,South,190,0.0,1.0,96,0.00,,,0.00,0,weatherlink.com 1.10,2013-02-02 12:05:00,
2013-02-02 07:21:00,43.3,42.0,30.30,East,84,0.0,0.0,96,0.00,,,0.00,0,weatherlink.com 1.10,2013-02-02 12:21:00,
2013-02-02 07:35:00,43.0,42.0,30.30,East,84,0.0,1.0,96,0.00,,,0.00,0,weatherlink.com 1.10,2013-02-02 12:35:00,
2013-02-02 07:50:00,42.8,42.0,30.30,East,84,0.0,0.0,96,0.00,,,0.00,0,weatherlink.com 1.10,2013-02-02 12:50:00,
2013-02-02 08:06:00,42.9,42.0,30.31,East,84,0.0,1.0,96,0.00,,,0.00,16,weatherlink.com 1.10,2013-02-02 13:06:00,
2013-02-02 08:24:00,43.4,42.0,30.30,East,84,0.0,2.0,96,0.00,,,0.00,32,weatherlink.com 1.10,2013-02-02 13:24:00,
2013-02-02 08:36:00,44.2,43.0,30.30,East,84,0.0,2.0,96,0.00,,,0.00,40,weatherlink.com 1.10,2013-02-02 13:36:00,
2013-02-02 08:51:00,45.3,44.0,30.30,ESE,103,0.0,4.0,96,0.00,,,0.00,67,weatherlink.com 1.10,2013-02-02 13:51:00,
2013-02-02 09:06:00,47.0,46.0,30.30,East,94,3.0,5.0,95,0.00,,,0.00,91,weatherlink.com 1.10,2013-02-02 14:06:00,
2013-02-02 09:21:00,48.6,47.0,30.29,SE,130,2.0,6.0,93,0.00,,,0.00,171,weatherlink.com 1.10,2013-02-02 14:21:00,
2013-02-02 09:36:00,51.2,48.0,30.30,SSE,148,5.0,6.0,90,0.00,,,0.00,279,weatherlink.com 1.10,2013-02-02 14:36:00,
2013-02-02 09:51:00,53.1,50.0,30.30,SE,128,2.0,7.0,88,0.00,,,0.00,332,weatherlink.com 1.10,2013-02-02 14:51:00,
2013-02-02 10:06:00,54.9,50.0,30.30,ESE,106,3.0,6.0,83,0.00,,,0.00,390,weatherlink.com 1.10,2013-02-02 15:06:00,
2013-02-02 10:21:00,55.9,50.0,30.30,ESE,113,2.0,5.0,81,0.00,,,0.00,439,weatherlink.com 1.10,2013-02-02 15:21:00,
2013-02-02 10:36:00,57.1,51.0,30.30,ESE,121,3.0,5.0,80,0.00,,,0.00,485,weatherlink.com 1.10,2013-02-02 15:36:00,
2013-02-02 10:51:00,58.4,51.0,30.30,SE,145,2.0,5.0,76,0.00,,,0.00,524,weatherlink.com 1.10,2013-02-02 15:51:00,
2013-02-02 11:06:00,59.3,51.0,30.30,SE,135,2.0,5.0,75,0.00,,,0.00,564,weatherlink.com 1.10,2013-02-02 16:06:00,
2013-02-02 11:21:00,60.9,52.0,30.29,South,176,2.0,5.0,72,0.00,,,0.00,601,weatherlink.com 1.10,2013-02-02 16:21:00,
2013-02-02 11:36:00,61.9,52.0,30.29,ESE,119,2.0,5.0,70,0.00,,,0.00,629,weatherlink.com 1.10,2013-02-02 16:36:00,
2013-02-02 11:51:00,62.4,52.0,30.28,SSW,194,2.0,8.0,69,0.00,,,0.00,657,weatherlink.com 1.10,2013-02-02 16:51:00,
2013-02-02 12:07:00,63.2,51.0,30.28,SSW,209,1.0,6.0,65,0.00,,,0.00,663,weatherlink.com 1.10,2013-02-02 17:07:00,
2013-02-02 12:22:00,64.6,52.0,30.27,West,264,1.0,7.0,64,0.00,,,0.00,687,weatherlink.com 1.10,2013-02-02 17:22:00,
2013-02-02 12:37:00,65.5,52.0,30.26,ESE,105,3.0,6.0,63,0.00,,,0.00,708,weatherlink.com 1.10,2013-02-02 17:37:00,
2013-02-02 12:52:00,65.6,53.0,30.26,WSW,248,5.0,7.0,63,0.00,,,0.00,710,weatherlink.com 1.10,2013-02-02 17:52:00,
2013-02-02 13:07:00,65.7,53.0,30.25,SSW,213,4.0,6.0,63,0.00,,,0.00,719,weatherlink.com 1.10,2013-02-02 18:07:00,
2013-02-02 13:22:00,66.4,54.0,30.24,South,180,2.0,6.0,64,0.00,,,0.00,719,weatherlink.com 1.10,2013-02-02 18:22:00,
2013-02-02 13:37:00,66.8,52.0,30.23,SW,229,1.0,9.0,60,0.00,,,0.00,728,weatherlink.com 1.10,2013-02-02 18:37:00,
2013-02-02 13:52:00,67.8,54.0,30.22,SSW,196,3.0,7.0,61,0.00,,,0.00,721,weatherlink.com 1.10,2013-02-02 18:52:00,
2013-02-02 14:07:00,67.9,53.0,30.21,NW,310,3.0,7.0,59,0.00,,,0.00,728,weatherlink.com 1.10,2013-02-02 19:07:00,
2013-02-02 14:22:00,68.5,53.0,30.21,SSW,212,4.0,11.0,58,0.00,,,0.00,789,weatherlink.com 1.10,2013-02-02 19:22:00,
2013-02-02 14:37:00,68.3,53.0,30.20,SW,227,6.0,9.0,58,0.00,,,0.00,148,weatherlink.com 1.10,2013-02-02 19:37:00,
2013-02-02 14:52:00,69.0,52.0,30.20,SW,227,5.0,13.0,56,0.00,,,0.00,211,weatherlink.com 1.10,2013-02-02 19:52:00,
2013-02-02 15:07:00,68.5,52.0,30.20,South,169,2.0,9.0,55,0.00,,,0.00,250,weatherlink.com 1.10,2013-02-02 20:07:00,
2013-02-02 15:22:00,68.9,51.0,30.19,NW,309,5.0,12.0,54,0.00,,,0.00,200,weatherlink.com 1.10,2013-02-02 20:22:00,
2013-02-02 15:37:00,69.5,52.0,30.19,WNW,288,3.0,9.0,55,0.00,,,0.00,645,weatherlink.com 1.10,2013-02-02 20:37:00,
2013-02-02 15:52:00,67.8,51.0,30.19,WNW,284,1.0,7.0,55,0.00,,,0.00,545,weatherlink.com 1.10,2013-02-02 20:52:00,
2013-02-02 16:08:00,69.4,49.0,30.18,NW,306,2.0,9.0,48,0.00,,,0.00,396,weatherlink.com 1.10,2013-02-02 21:08:00,
2013-02-02 16:22:00,68.2,50.0,30.18,WSW,257,3.0,7.0,53,0.00,,,0.00,81,weatherlink.com 1.10,2013-02-02 21:22:00,
2013-02-02 16:38:00,69.1,51.0,30.17,NW,304,1.0,5.0,53,0.00,,,0.00,417,weatherlink.com 1.10,2013-02-02 21:38:00,
2013-02-02 16:52:00,67.9,51.0,30.17,WNW,294,1.0,5.0,55,0.00,,,0.00,355,weatherlink.com 1.10,2013-02-02 21:52:00,
2013-02-02 17:08:00,68.5,50.0,30.17,West,279,5.0,5.0,51,0.00,,,0.00,105,weatherlink.com 1.10,2013-02-02 22:08:00,
2013-02-02 17:23:00,68.7,49.0,30.17,WNW,288,5.0,6.0,49,0.00,,,0.00,223,weatherlink.com 1.10,2013-02-02 22:23:00,
2013-02-02 17:37:00,68.6,49.0,30.16,WSW,239,3.0,5.0,50,0.00,,,0.00,153,weatherlink.com 1.10,2013-02-02 22:37:00,
2013-02-02 17:52:00,68.1,49.0,30.16,SW,227,0.0,7.0,50,0.00,,,0.00,33,weatherlink.com 1.10,2013-02-02 22:52:00,
2013-02-02 18:09:00,67.2,49.0,30.16,WNW,290,0.0,4.0,53,0.00,,,0.00,23,weatherlink.com 1.10,2013-02-02 23:09:00,
2013-02-02 18:23:00,66.4,49.0,30.16,WNW,289,0.0,2.0,53,0.00,,,0.00,14,weatherlink.com 1.10,2013-02-02 23:23:00,
2013-02-02 18:37:00,65.9,48.0,30.16,WSW,237,0.0,5.0,53,0.00,,,0.00,7,weatherlink.com 1.10,2013-02-02 23:37:00,
2013-02-02 18:52:00,63.8,48.0,30.16,WSW,237,0.0,1.0,57,0.00,,,0.00,0,weatherlink.com 1.10,2013-02-02 23:52:00,
2013-02-02 19:07:00,61.1,48.0,30.17,WSW,237,0.0,0.0,62,0.00,,,0.00,0,weatherlink.com 1.10,2013-02-03 00:07:00,
2013-02-02 19:22:00,59.9,48.0,30.18,WSW,237,0.0,0.0,66,0.00,,,0.00,0,weatherlink.com 1.10,2013-02-03 00:22:00,
2013-02-02 19:37:00,58.6,50.0,30.18,WSW,237,0.0,0.0,72,0.00,,,0.00,0,weatherlink.com 1.10,2013-02-03 00:37:00,
2013-02-02 19:52:00,57.5,49.0,30.18,WSW,237,0.0,0.0,74,0.00,,,0.00,0,weatherlink.com 1.10,2013-02-03 00:52:00,
2013-02-02 20:08:00,56.5,49.0,30.19,WSW,237,0.0,0.0,75,0.00,,,0.00,0,weatherlink.com 1.10,2013-02-03 01:08:00,
2013-02-02 20:22:00,55.8,49.0,30.19,WSW,237,0.0,1.0,79,0.00,,,0.00,0,weatherlink.com 1.10,2013-02-03 01:22:00,
2013-02-02 20:37:00,55.7,51.0,30.20,WSW,237,0.0,0.0,83,0.00,,,0.00,0,weatherlink.com 1.10,2013-02-03 01:37:00,
2013-02-02 20:52:00,57.3,50.0,30.20,West,278,0.0,4.0,77,0.00,,,0.00,0,weatherlink.com 1.10,2013-02-03 01:52:00,
2013-02-02 21:07:00,59.1,50.0,30.20,SW,236,0.0,4.0,73,0.00,,,0.00,0,weatherlink.com 1.10,2013-02-03 02:07:00,
2013-02-02 21:22:00,59.1,51.0,30.21,SW,236,1.0,2.0,74,0.00,,,0.00,0,weatherlink.com 1.10,2013-02-03 02:22:00,
2013-02-02 21:37:00,57.3,50.0,30.21,SW,236,0.0,0.0,77,0.00,,,0.00,0,weatherlink.com 1.10,2013-02-03 02:37:00,
2013-02-02 21:53:00,57.1,51.0,30.21,WSW,237,0.0,2.0,80,0.00,,,0.00,0,weatherlink.com 1.10,2013-02-03 02:53:00,
2013-02-02 22:08:00,57.7,52.0,30.21,WSW,251,0.0,2.0,80,0.00,,,0.00,0,weatherlink.com 1.10,2013-02-03 03:08:00,
2013-02-02 22:23:00,57.1,51.0,30.21,WSW,251,0.0,2.0,81,0.00,,,0.00,0,weatherlink.com 1.10,2013-02-03 03:23:00,
2013-02-02 22:38:00,55.6,51.0,30.21,WSW,240,1.0,3.0,85,0.00,,,0.00,0,weatherlink.com 1.10,2013-02-03 03:38:00,
2013-02-02 22:53:00,56.5,52.0,30.21,WSW,239,0.0,3.0,85,0.00,,,0.00,0,weatherlink.com 1.10,2013-02-03 03:53:00,
2013-02-02 23:08:00,56.9,52.0,30.21,WSW,239,0.0,3.0,84,0.00,,,0.00,0,weatherlink.com 1.10,2013-02-03 04:08:00,
2013-02-02 23:23:00,56.7,52.0,30.21,SW,232,1.0,3.0,85,0.00,,,0.00,0,weatherlink.com 1.10,2013-02-03 04:23:00,
2013-02-02 23:38:00,56.5,52.0,30.21,SW,232,0.0,3.0,86,0.00,,,0.00,0,weatherlink.com 1.10,2013-02-03 04:38:00,
2013-02-02 23:53:00,56.1,52.0,30.21,SW,232,0.0,2.0,87,0.00,,,0.00,0,weatherlink.com 1.10,2013-02-03 04:53:00,